sensor_id;sensor_type;location;lat;lon;timestamp;pressure;altitude;pressure_sealevel;temperature;humidity
10638;BME280;47007;49.252;8.904;2023-11-19T00:00:18;99655.22;;;9.58;100.00
10638;BME280;47007;49.252;8.904;2023-11-19T00:01:00;99654.75;;;9.54;100.00
10638;BME280;47007;49.252;8.904;2023-11-19T00:01:42;99673.56;;;9.59;100.00
10638;BME280;47007;49.252;8.904;2023-11-19T00:02:24;99641.13;;;9.43;100.00
10638;BME280;47007;49.252;8.904;2023-11-19T00:03:06;99649.28;;;9.56;100.00
10638;BME280;47007;49.252;8.904;2023-11-19T00:03:48;99663.44;;;9.63;100.00
10638;BME280;47007;49.252;8.904;2023-11-19T00:04:32;99643.00;;;9.57;100.00
10638;BME280;47007;49.252;8.904;2023-11-19T00:05:14;99656.78;;;9.67;100.00
10638;BME280;47007;49.252;8.904;2023-11-19T00:05:56;99660.53;;;9.72;100.00
10638;BME280;47007;49.252;8.904;2023-11-19T00:06:38;99648.84;;;9.67;100.00
10638;BME280;47007;49.252;8.904;2023-11-19T00:07:19;99620.34;;;9.54;100.00
10638;BME280;47007;49.252;8.904;2023-11-19T00:08:02;99651.94;;;9.70;100.00
10638;BME280;47007;49.252;8.904;2023-11-19T00:08:44;99649.31;;;9.70;100.00
10638;BME280;47007;49.252;8.904;2023-11-19T00:09:26;99642.38;;;9.69;100.00
10638;BME280;47007;49.252;8.904;2023-11-19T00:10:15;99660.63;;;9.79;100.00
10638;BME280;47007;49.252;8.904;2023-11-19T00:11:06;99619.00;;;9.58;100.00
10638;BME280;47007;49.252;8.904;2023-11-19T00:11:48;99657.63;;;9.82;100.00
10638;BME280;47007;49.252;8.904;2023-11-19T00:12:33;99654.31;;;9.80;100.00
10638;BME280;47007;49.252;8.904;2023-11-19T00:13:15;99662.00;;;9.75;100.00
10638;BME280;47007;49.252;8.904;2023-11-19T00:13:58;99651.47;;;9.67;100.00
10638;BME280;47007;49.252;8.904;2023-11-19T00:14:39;99646.75;;;9.62;100.00
10638;BME280;47007;49.252;8.904;2023-11-19T00:15:22;99651.03;;;9.63;100.00
10638;BME280;47007;49.252;8.904;2023-11-19T00:16:06;99659.34;;;9.60;100.00
10638;BME280;47007;49.252;8.904;2023-11-19T00:16:49;99639.78;;;9.47;100.00
10638;BME280;47007;49.252;8.904;2023-11-19T00:17:32;99646.09;;;9.46;100.00
10638;BME280;47007;49.252;8.904;2023-11-19T00:18:14;99651.19;;;9.47;100.00
10638;BME280;47007;49.252;8.904;2023-11-19T00:18:56;99651.19;;;9.47;100.00
10638;BME280;47007;49.252;8.904;2023-11-19T00:19:38;99650.56;;;9.45;100.00
10638;BME280;47007;49.252;8.904;2023-11-19T00:20:20;99638.84;;;9.40;100.00
10638;BME280;47007;49.252;8.904;2023-11-19T00:21:03;99646.59;;;9.41;100.00
10638;BME280;47007;49.252;8.904;2023-11-19T00:21:45;99648.44;;;9.41;100.00
10638;BME280;47007;49.252;8.904;2023-11-19T00:22:27;99629.53;;;9.29;100.00
10638;BME280;47007;49.252;8.904;2023-11-19T00:23:09;99643.06;;;9.34;100.00
10638;BME280;47007;49.252;8.904;2023-11-19T00:23:51;99631.91;;;9.24;100.00
10638;BME280;47007;49.252;8.904;2023-11-19T00:24:33;99623.97;;;9.24;100.00
10638;BME280;47007;49.252;8.904;2023-11-19T00:25:16;99635.28;;;9.32;100.00
10638;BME280;47007;49.252;8.904;2023-11-19T00:25:58;99637.75;;;9.34;100.00
10638;BME280;47007;49.252;8.904;2023-11-19T00:26:40;99601.53;;;9.20;100.00
10638;BME280;47007;49.252;8.904;2023-11-19T00:27:21;99618.59;;;9.32;100.00
10638;BME280;47007;49.252;8.904;2023-11-19T00:28:03;99614.03;;;9.26;100.00
10638;BME280;47007;49.252;8.904;2023-11-19T00:28:45;99633.56;;;9.40;100.00
10638;BME280;47007;49.252;8.904;2023-11-19T00:29:29;99613.44;;;9.39;100.00
10638;BME280;47007;49.252;8.904;2023-11-19T00:30:11;99602.72;;;9.32;100.00
10638;BME280;47007;49.252;8.904;2023-11-19T00:30:53;99602.03;;;9.38;100.00
10638;BME280;47007;49.252;8.904;2023-11-19T00:31:36;99597.56;;;9.39;100.00
10638;BME280;47007;49.252;8.904;2023-11-19T00:32:18;99595.81;;;9.46;100.00
10638;BME280;47007;49.252;8.904;2023-11-19T00:33:00;99595.53;;;9.55;100.00
10638;BME280;47007;49.252;8.904;2023-11-19T00:33:41;99601.13;;;9.60;100.00
10638;BME280;47007;49.252;8.904;2023-11-19T00:34:26;99595.19;;;9.58;100.00
10638;BME280;47007;49.252;8.904;2023-11-19T00:35:08;99589.25;;;9.56;100.00
10638;BME280;47007;49.252;8.904;2023-11-19T00:35:56;99582.31;;;9.55;100.00
10638;BME280;47007;49.252;8.904;2023-11-19T00:36:38;99592.19;;;9.61;100.00
10638;BME280;47007;49.252;8.904;2023-11-19T00:37:20;99580.66;;;9.54;100.00
10638;BME280;47007;49.252;8.904;2023-11-19T00:38:02;99595.84;;;9.60;100.00
10638;BME280;47007;49.252;8.904;2023-11-19T00:38:45;99596.66;;;9.61;100.00
10638;BME280;47007;49.252;8.904;2023-11-19T00:39:27;99598.31;;;9.62;100.00
10638;BME280;47007;49.252;8.904;2023-11-19T00:40:09;99585.78;;;9.56;100.00
10638;BME280;47007;49.252;8.904;2023-11-19T00:40:52;99598.13;;;9.63;100.00
10638;BME280;47007;49.252;8.904;2023-11-19T00:41:34;99598.66;;;9.59;100.00
10638;BME280;47007;49.252;8.904;2023-11-19T00:42:16;99603.22;;;9.65;100.00
10638;BME280;47007;49.252;8.904;2023-11-19T00:42:57;99612.59;;;9.67;100.00
10638;BME280;47007;49.252;8.904;2023-11-19T00:43:41;99596.31;;;9.64;100.00
10638;BME280;47007;49.252;8.904;2023-11-19T00:44:23;99603.78;;;9.60;100.00
10638;BME280;47007;49.252;8.904;2023-11-19T00:45:05;99595.38;;;9.57;100.00
10638;BME280;47007;49.252;8.904;2023-11-19T00:45:51;99598.38;;;9.54;100.00
10638;BME280;47007;49.252;8.904;2023-11-19T00:46:33;99590.81;;;9.51;100.00
10638;BME280;47007;49.252;8.904;2023-11-19T00:47:14;99582.13;;;9.42;100.00
10638;BME280;47007;49.252;8.904;2023-11-19T00:47:56;99566.63;;;9.39;100.00
10638;BME280;47007;49.252;8.904;2023-11-19T00:48:40;99585.41;;;9.44;100.00
10638;BME280;47007;49.252;8.904;2023-11-19T00:49:22;99569.06;;;9.41;100.00
10638;BME280;47007;49.252;8.904;2023-11-19T00:50:05;99592.91;;;9.55;100.00
10638;BME280;47007;49.252;8.904;2023-11-19T00:50:47;99592.53;;;9.58;100.00
10638;BME280;47007;49.252;8.904;2023-11-19T00:51:28;99595.84;;;9.60;100.00
10638;BME280;47007;49.252;8.904;2023-11-19T00:52:12;99582.13;;;9.57;100.00
10638;BME280;47007;49.252;8.904;2023-11-19T00:52:54;99588.16;;;9.65;100.00
10638;BME280;47007;49.252;8.904;2023-11-19T00:53:36;99586.50;;;9.64;100.00
10638;BME280;47007;49.252;8.904;2023-11-19T00:54:18;99583.50;;;9.67;100.00
10638;BME280;47007;49.252;8.904;2023-11-19T00:54:59;99558.31;;;9.57;100.00
10638;BME280;47007;49.252;8.904;2023-11-19T00:55:41;99570.56;;;9.58;100.00
10638;BME280;47007;49.252;8.904;2023-11-19T00:56:27;99574.75;;;9.67;100.00
10638;BME280;47007;49.252;8.904;2023-11-19T00:57:10;99583.78;;;9.72;100.00
10638;BME280;47007;49.252;8.904;2023-11-19T00:57:51;99579.78;;;9.77;100.00
10638;BME280;47007;49.252;8.904;2023-11-19T00:58:33;99580.78;;;9.76;100.00
10638;BME280;47007;49.252;8.904;2023-11-19T00:59:15;99581.78;;;9.75;100.00
10638;BME280;47007;49.252;8.904;2023-11-19T00:59:57;99579.31;;;9.73;100.00
10638;BME280;47007;49.252;8.904;2023-11-19T01:00:39;99577.03;;;9.70;100.00
10638;BME280;47007;49.252;8.904;2023-11-19T01:01:21;99579.22;;;9.66;100.00
10638;BME280;47007;49.252;8.904;2023-11-19T01:02:03;99576.94;;;9.63;100.00
10638;BME280;47007;49.252;8.904;2023-11-19T01:02:47;99580.59;;;9.62;100.00
10638;BME280;47007;49.252;8.904;2023-11-19T01:03:32;99582.41;;;9.62;100.00
10638;BME280;47007;49.252;8.904;2023-11-19T01:04:15;99587.72;;;9.62;100.00
10638;BME280;47007;49.252;8.904;2023-11-19T01:04:57;99561.06;;;9.49;100.00
10638;BME280;47007;49.252;8.904;2023-11-19T01:05:38;99558.06;;;9.37;100.00
10638;BME280;47007;49.252;8.904;2023-11-19T01:06:30;99567.72;;;9.45;100.00
10638;BME280;47007;49.252;8.904;2023-11-19T01:07:12;99571.19;;;9.45;100.00
10638;BME280;47007;49.252;8.904;2023-11-19T01:07:55;99586.69;;;9.48;100.00
10638;BME280;47007;49.252;8.904;2023-11-19T01:08:36;99586.06;;;9.46;100.00
10638;BME280;47007;49.252;8.904;2023-11-19T01:09:18;99597.94;;;9.50;100.00
10638;BME280;47007;49.252;8.904;2023-11-19T01:10:00;99595.47;;;9.49;100.00
10638;BME280;47007;49.252;8.904;2023-11-19T01:10:42;99594.63;;;9.48;100.00
10638;BME280;47007;49.252;8.904;2023-11-19T01:11:24;99592.00;;;9.48;100.00
10638;BME280;47007;49.252;8.904;2023-11-19T01:12:06;99587.97;;;9.52;100.00
10638;BME280;47007;49.252;8.904;2023-11-19T01:12:48;99581.66;;;9.53;100.00
10638;BME280;47007;49.252;8.904;2023-11-19T01:13:30;99585.78;;;9.56;100.00
10638;BME280;47007;49.252;8.904;2023-11-19T01:14:12;99581.66;;;9.53;100.00
10638;BME280;47007;49.252;8.904;2023-11-19T01:14:54;99592.81;;;9.63;100.00
10638;BME280;47007;49.252;8.904;2023-11-19T01:15:36;99594.44;;;9.64;100.00
10638;BME280;47007;49.252;8.904;2023-11-19T01:16:18;99589.97;;;9.65;100.00
10638;BME280;47007;49.252;8.904;2023-11-19T01:17:01;99590.91;;;9.57;100.00
10638;BME280;47007;49.252;8.904;2023-11-19T01:17:43;99598.47;;;9.60;100.00
10638;BME280;47007;49.252;8.904;2023-11-19T01:18:28;99597.84;;;9.58;100.00
10638;BME280;47007;49.252;8.904;2023-11-19T01:19:10;99592.06;;;9.55;100.00
10638;BME280;47007;49.252;8.904;2023-11-19T01:19:58;99590.91;;;9.57;100.00
10638;BME280;47007;49.252;8.904;2023-11-19T01:20:40;99602.31;;;9.58;100.00
10638;BME280;47007;49.252;8.904;2023-11-19T01:21:22;99584.59;;;9.58;100.00
10638;BME280;47007;49.252;8.904;2023-11-19T01:22:04;99589.53;;;9.61;100.00
10638;BME280;47007;49.252;8.904;2023-11-19T01:22:45;99561.44;;;9.46;100.00
10638;BME280;47007;49.252;8.904;2023-11-19T01:23:27;99590.78;;;9.65;100.00
10638;BME280;47007;49.252;8.904;2023-11-19T01:24:09;99585.31;;;9.67;100.00
10638;BME280;47007;49.252;8.904;2023-11-19T01:24:52;99585.50;;;9.65;100.00
10638;BME280;47007;49.252;8.904;2023-11-19T01:25:34;99587.78;;;9.68;100.00
10638;BME280;47007;49.252;8.904;2023-11-19T01:26:17;99562.44;;;9.59;100.00
10638;BME280;47007;49.252;8.904;2023-11-19T01:26:59;99584.16;;;9.69;100.00
10638;BME280;47007;49.252;8.904;2023-11-19T01:27:41;99580.13;;;9.73;100.00
10638;BME280;47007;49.252;8.904;2023-11-19T01:28:23;99576.31;;;9.76;100.00
10638;BME280;47007;49.252;8.904;2023-11-19T01:29:05;99564.63;;;9.70;100.00
10638;BME280;47007;49.252;8.904;2023-11-19T01:29:48;99556.84;;;9.69;100.00
10638;BME280;47007;49.252;8.904;2023-11-19T01:30:30;99568.38;;;9.76;100.00
10638;BME280;47007;49.252;8.904;2023-11-19T01:31:14;99564.69;;;9.77;100.00
10638;BME280;47007;49.252;8.904;2023-11-19T01:31:56;99561.88;;;9.79;100.00
10638;BME280;47007;49.252;8.904;2023-11-19T01:32:39;99547.56;;;9.73;100.00
10638;BME280;47007;49.252;8.904;2023-11-19T01:33:22;99572.44;;;9.79;100.00
10638;BME280;47007;49.252;8.904;2023-11-19T01:34:04;99579.97;;;9.75;100.00
10638;BME280;47007;49.252;8.904;2023-11-19T01:34:45;99574.38;;;9.70;100.00
10638;BME280;47007;49.252;8.904;2023-11-19T01:35:27;99581.22;;;9.64;100.00
10638;BME280;47007;49.252;8.904;2023-11-19T01:36:09;99572.00;;;9.60;100.00
10638;BME280;47007;49.252;8.904;2023-11-19T01:36:54;99557.59;;;9.48;100.00
10638;BME280;47007;49.252;8.904;2023-11-19T01:37:36;99576.50;;;9.60;100.00
10638;BME280;47007;49.252;8.904;2023-11-19T01:38:18;99576.31;;;9.61;100.00
10638;BME280;47007;49.252;8.904;2023-11-19T01:38:59;99576.66;;;9.58;100.00
10638;BME280;47007;49.252;8.904;2023-11-19T01:39:44;99558.44;;;9.49;100.00
10638;BME280;47007;49.252;8.904;2023-11-19T01:40:26;99574.56;;;9.54;100.00
10638;BME280;47007;49.252;8.904;2023-11-19T01:41:08;99577.19;;;9.54;100.00
10638;BME280;47007;49.252;8.904;2023-11-19T01:41:50;99577.78;;;9.49;100.00
10638;BME280;47007;49.252;8.904;2023-11-19T01:42:39;99568.06;;;9.42;100.00
10638;BME280;47007;49.252;8.904;2023-11-19T01:43:33;99569.38;;;9.46;100.00
10638;BME280;47007;49.252;8.904;2023-11-19T01:44:15;99576.47;;;9.45;100.00
10638;BME280;47007;49.252;8.904;2023-11-19T01:44:58;99555.31;;;9.30;100.00
10638;BME280;47007;49.252;8.904;2023-11-19T01:45:40;99575.31;;;9.48;100.00
10638;BME280;47007;49.252;8.904;2023-11-19T01:46:22;99575.56;;;9.53;100.00
10638;BME280;47007;49.252;8.904;2023-11-19T01:47:04;99560.97;;;9.42;100.00
10638;BME280;47007;49.252;8.904;2023-11-19T01:47:47;99566.78;;;9.52;100.00
10638;BME280;47007;49.252;8.904;2023-11-19T01:48:30;99568.19;;;9.48;100.00
10638;BME280;47007;49.252;8.904;2023-11-19T01:49:14;99576.38;;;9.53;100.00
10638;BME280;47007;49.252;8.904;2023-11-19T01:49:56;99559.31;;;9.41;100.00
10638;BME280;47007;49.252;8.904;2023-11-19T01:50:39;99573.72;;;9.53;100.00
10638;BME280;47007;49.252;8.904;2023-11-19T01:51:21;99579.22;;;9.52;100.00
10638;BME280;47007;49.252;8.904;2023-11-19T01:52:03;99554.41;;;9.38;100.00
10638;BME280;47007;49.252;8.904;2023-11-19T01:52:46;99566.72;;;9.46;100.00
10638;BME280;47007;49.252;8.904;2023-11-19T01:53:28;99572.09;;;9.52;100.00
10638;BME280;47007;49.252;8.904;2023-11-19T01:54:11;99549.56;;;9.42;100.00
10638;BME280;47007;49.252;8.904;2023-11-19T01:54:53;99552.03;;;9.43;100.00
10638;BME280;47007;49.252;8.904;2023-11-19T01:55:36;99554.97;;;9.48;100.00
10638;BME280;47007;49.252;8.904;2023-11-19T01:56:17;99568.56;;;9.60;100.00
10638;BME280;47007;49.252;8.904;2023-11-19T01:56:59;99571.66;;;9.63;100.00
10638;BME280;47007;49.252;8.904;2023-11-19T01:57:42;99567.19;;;9.64;100.00
10638;BME280;47007;49.252;8.904;2023-11-19T01:58:24;99588.53;;;9.62;100.00
10638;BME280;47007;49.252;8.904;2023-11-19T01:59:07;99577.66;;;9.57;100.00
10638;BME280;47007;49.252;8.904;2023-11-19T01:59:50;99579.50;;;9.57;100.00
10638;BME280;47007;49.252;8.904;2023-11-19T02:00:33;99573.47;;;9.48;100.00
10638;BME280;47007;49.252;8.904;2023-11-19T02:01:15;99566.06;;;9.44;100.00
10638;BME280;47007;49.252;8.904;2023-11-19T02:01:58;99575.75;;;9.51;100.00
10638;BME280;47007;49.252;8.904;2023-11-19T02:02:43;99557.06;;;9.38;100.00
10638;BME280;47007;49.252;8.904;2023-11-19T02:03:26;99549.31;;;9.36;100.00
10638;BME280;47007;49.252;8.904;2023-11-19T02:04:11;99567.72;;;9.45;100.00
10638;BME280;47007;49.252;8.904;2023-11-19T02:04:53;99565.72;;;9.47;100.00
10638;BME280;47007;49.252;8.904;2023-11-19T02:05:36;99557.59;;;9.48;100.00
10638;BME280;47007;49.252;8.904;2023-11-19T02:06:18;99555.78;;;9.49;100.00
10638;BME280;47007;49.252;8.904;2023-11-19T02:07:00;99549.03;;;9.46;100.00
10638;BME280;47007;49.252;8.904;2023-11-19T02:07:42;99564.06;;;9.60;100.00
10638;BME280;47007;49.252;8.904;2023-11-19T02:08:24;99535.78;;;9.46;100.00
10638;BME280;47007;49.252;8.904;2023-11-19T02:09:05;99529.50;;;9.47;100.00
10638;BME280;47007;49.252;8.904;2023-11-19T02:09:49;99561.31;;;9.68;100.00
10638;BME280;47007;49.252;8.904;2023-11-19T02:10:31;99560.16;;;9.71;100.00
10638;BME280;47007;49.252;8.904;2023-11-19T02:11:14;99553.13;;;9.63;100.00
10638;BME280;47007;49.252;8.904;2023-11-19T02:11:56;99561.16;;;9.70;100.00
10638;BME280;47007;49.252;8.904;2023-11-19T02:12:39;99539.97;;;9.55;100.00
10638;BME280;47007;49.252;8.904;2023-11-19T02:13:25;99538.81;;;9.58;100.00
10638;BME280;47007;49.252;8.904;2023-11-19T02:14:08;99563.34;;;9.66;100.00
10638;BME280;47007;49.252;8.904;2023-11-19T02:14:49;99533.50;;;9.58;100.00
10638;BME280;47007;49.252;8.904;2023-11-19T02:15:32;99549.91;;;9.68;100.00
10638;BME280;47007;49.252;8.904;2023-11-19T02:16:14;99548.09;;;9.68;100.00
10638;BME280;47007;49.252;8.904;2023-11-19T02:16:56;99560.69;;;9.66;100.00
10638;BME280;47007;49.252;8.904;2023-11-19T02:17:38;99562.06;;;9.62;100.00
10638;BME280;47007;49.252;8.904;2023-11-19T02:18:25;99562.06;;;9.62;100.00
10638;BME280;47007;49.252;8.904;2023-11-19T02:19:09;99558.78;;;9.60;100.00
10638;BME280;47007;49.252;8.904;2023-11-19T02:19:52;99557.78;;;9.61;100.00
10638;BME280;47007;49.252;8.904;2023-11-19T02:20:34;99561.91;;;9.64;100.00
10638;BME280;47007;49.252;8.904;2023-11-19T02:21:16;99554.38;;;9.67;100.00
10638;BME280;47007;49.252;8.904;2023-11-19T02:21:59;99545.44;;;9.68;100.00
10638;BME280;47007;49.252;8.904;2023-11-19T02:22:42;99528.75;;;9.68;100.00
10638;BME280;47007;49.252;8.904;2023-11-19T02:23:29;99537.63;;;9.75;100.00
10638;BME280;47007;49.252;8.904;2023-11-19T02:24:14;99522.63;;;9.67;100.00
10638;BME280;47007;49.252;8.904;2023-11-19T02:24:59;99524.38;;;9.75;100.00
10638;BME280;47007;49.252;8.904;2023-11-19T02:25:43;99529.66;;;9.75;100.00
10638;BME280;47007;49.252;8.904;2023-11-19T02:26:33;99527.22;;;9.73;100.00
10638;BME280;47007;49.252;8.904;2023-11-19T02:28:08;99521.38;;;9.63;100.00
10638;BME280;47007;49.252;8.904;2023-11-19T02:28:50;99517.81;;;9.56;100.00
10638;BME280;47007;49.252;8.904;2023-11-19T02:29:31;99494.19;;;9.40;100.00
10638;BME280;47007;49.252;8.904;2023-11-19T02:30:13;99520.00;;;9.53;100.00
10638;BME280;47007;49.252;8.904;2023-11-19T02:30:56;99527.31;;;9.51;100.00
10638;BME280;47007;49.252;8.904;2023-11-19T02:31:38;99526.22;;;9.45;100.00
10638;BME280;47007;49.252;8.904;2023-11-19T02:32:20;99512.09;;;9.38;100.00
10638;BME280;47007;49.252;8.904;2023-11-19T02:33:02;99531.97;;;9.49;100.00
10638;BME280;47007;49.252;8.904;2023-11-19T02:33:47;99530.50;;;9.46;100.00
10638;BME280;47007;49.252;8.904;2023-11-19T02:34:29;99530.88;;;9.43;100.00
10638;BME280;47007;49.252;8.904;2023-11-19T02:35:11;99510.25;;;9.24;100.00
10638;BME280;47007;49.252;8.904;2023-11-19T02:35:53;99536.06;;;9.36;100.00
10638;BME280;47007;49.252;8.904;2023-11-19T02:36:35;99534.69;;;9.41;100.00
10638;BME280;47007;49.252;8.904;2023-11-19T02:37:17;99535.16;;;9.44;100.00
10638;BME280;47007;49.252;8.904;2023-11-19T02:38:00;99519.22;;;9.38;100.00
10638;BME280;47007;49.252;8.904;2023-11-19T02:38:42;99525.94;;;9.40;100.00
10638;BME280;47007;49.252;8.904;2023-11-19T02:39:24;99538.09;;;9.49;100.00
10638;BME280;47007;49.252;8.904;2023-11-19T02:40:06;99502.75;;;9.27;100.00
10638;BME280;47007;49.252;8.904;2023-11-19T02:40:50;99540.09;;;9.47;100.00
10638;BME280;47007;49.252;8.904;2023-11-19T02:41:32;99532.34;;;9.46;100.00
10638;BME280;47007;49.252;8.904;2023-11-19T02:42:14;99523.75;;;9.44;100.00
10638;BME280;47007;49.252;8.904;2023-11-19T02:42:55;99526.22;;;9.45;100.00
10638;BME280;47007;49.252;8.904;2023-11-19T02:43:38;99496.84;;;9.40;100.00
10638;BME280;47007;49.252;8.904;2023-11-19T02:44:20;99515.34;;;9.55;100.00
10638;BME280;47007;49.252;8.904;2023-11-19T02:45:02;99511.16;;;9.60;100.00
10638;BME280;47007;49.252;8.904;2023-11-19T02:45:50;99509.97;;;9.63;100.00
10638;BME280;47007;49.252;8.904;2023-11-19T02:46:32;99511.22;;;9.67;100.00
10638;BME280;47007;49.252;8.904;2023-11-19T02:47:14;99502.03;;;9.63;100.00
10638;BME280;47007;49.252;8.904;2023-11-19T02:47:55;99506.56;;;9.69;100.00
10638;BME280;47007;49.252;8.904;2023-11-19T02:48:37;99506.41;;;9.70;100.00
10638;BME280;47007;49.252;8.904;2023-11-19T02:49:20;99505.22;;;9.73;100.00
10638;BME280;47007;49.252;8.904;2023-11-19T02:50:02;99496.69;;;9.78;100.00
10638;BME280;47007;49.252;8.904;2023-11-19T02:50:44;99483.47;;;9.78;100.00
10638;BME280;47007;49.252;8.904;2023-11-19T02:51:26;99468.06;;;9.66;100.00
10638;BME280;47007;49.252;8.904;2023-11-19T02:52:09;99484.88;;;9.73;100.00
10638;BME280;47007;49.252;8.904;2023-11-19T02:52:53;99480.28;;;9.67;100.00
10638;BME280;47007;49.252;8.904;2023-11-19T02:53:36;99487.81;;;9.64;100.00
10638;BME280;47007;49.252;8.904;2023-11-19T02:54:18;99470.75;;;9.52;100.00
10638;BME280;47007;49.252;8.904;2023-11-19T02:55:01;99457.97;;;9.41;100.00
10638;BME280;47007;49.252;8.904;2023-11-19T02:55:42;99477.31;;;9.56;100.00
10638;BME280;47007;49.252;8.904;2023-11-19T02:56:29;99475.94;;;9.60;100.00
10638;BME280;47007;49.252;8.904;2023-11-19T02:57:16;99470.47;;;9.61;100.00
10638;BME280;47007;49.252;8.904;2023-11-19T02:58:04;99476.41;;;9.63;100.00
10638;BME280;47007;49.252;8.904;2023-11-19T02:58:52;99463.06;;;9.57;100.00
10638;BME280;47007;49.252;8.904;2023-11-19T02:59:37;99458.41;;;9.59;100.00
10638;BME280;47007;49.252;8.904;2023-11-19T03:00:22;99465.25;;;9.68;100.00
10638;BME280;47007;49.252;8.904;2023-11-19T03:01:13;99464.88;;;9.71;100.00
10638;BME280;47007;49.252;8.904;2023-11-19T03:02:05;99443.63;;;9.64;100.00
10638;BME280;47007;49.252;8.904;2023-11-19T03:02:58;99469.88;;;9.81;100.00
10638;BME280;47007;49.252;8.904;2023-11-19T03:03:40;99474.44;;;9.87;100.00
10638;BME280;47007;49.252;8.904;2023-11-19T03:04:23;99472.19;;;9.90;100.00
10638;BME280;47007;49.252;8.904;2023-11-19T03:05:05;99474.47;;;9.93;100.00
10638;BME280;47007;49.252;8.904;2023-11-19T03:05:49;99470.00;;;9.94;100.00
10638;BME280;47007;49.252;8.904;2023-11-19T03:06:30;99454.34;;;9.78;100.00
10638;BME280;47007;49.252;8.904;2023-11-19T03:07:13;99473.66;;;9.93;100.00
10638;BME280;47007;49.252;8.904;2023-11-19T03:07:55;99457.25;;;9.83;100.00
10638;BME280;47007;49.252;8.904;2023-11-19T03:08:37;99470.47;;;9.97;100.00
10638;BME280;47007;49.252;8.904;2023-11-19T03:09:18;99452.63;;;9.85;100.00
10638;BME280;47007;49.252;8.904;2023-11-19T03:10:00;99469.00;;;9.95;100.00
10638;BME280;47007;49.252;8.904;2023-11-19T03:10:42;99479.03;;;9.99;100.00
10638;BME280;47007;49.252;8.904;2023-11-19T03:11:24;99475.38;;;10.00;100.00
10638;BME280;47007;49.252;8.904;2023-11-19T03:12:06;99482.75;;;10.05;100.00
10638;BME280;47007;49.252;8.904;2023-11-19T03:12:48;99475.81;;;10.04;100.00
10638;BME280;47007;49.252;8.904;2023-11-19T03:13:30;99480.09;;;10.05;100.00
10638;BME280;47007;49.252;8.904;2023-11-19T03:14:12;99476.63;;;10.04;100.00
10638;BME280;47007;49.252;8.904;2023-11-19T03:14:54;99469.06;;;10.01;100.00
10638;BME280;47007;49.252;8.904;2023-11-19T03:15:36;99472.53;;;10.02;100.00
10638;BME280;47007;49.252;8.904;2023-11-19T03:16:18;99459.41;;;9.94;100.00
10638;BME280;47007;49.252;8.904;2023-11-19T03:17:00;99469.47;;;9.98;100.00
10638;BME280;47007;49.252;8.904;2023-11-19T03:17:43;99468.63;;;9.98;100.00
10638;BME280;47007;49.252;8.904;2023-11-19T03:18:25;99458.22;;;9.96;100.00
10638;BME280;47007;49.252;8.904;2023-11-19T03:19:07;99461.06;;;9.95;100.00
10638;BME280;47007;49.252;8.904;2023-11-19T03:19:48;99454.50;;;9.91;100.00
10638;BME280;47007;49.252;8.904;2023-11-19T03:20:30;99458.03;;;9.98;100.00
10638;BME280;47007;49.252;8.904;2023-11-19T03:21:12;99463.34;;;9.98;100.00
10638;BME280;47007;49.252;8.904;2023-11-19T03:21:55;99450.09;;;9.98;100.00
10638;BME280;47007;49.252;8.904;2023-11-19T03:22:37;99459.56;;;10.07;100.00
10638;BME280;47007;49.252;8.904;2023-11-19T03:23:19;99445.44;;;10.00;100.00
10638;BME280;47007;49.252;8.904;2023-11-19T03:24:01;99468.59;;;10.13;100.00
10638;BME280;47007;49.252;8.904;2023-11-19T03:24:43;99459.41;;;10.15;100.00
10638;BME280;47007;49.252;8.904;2023-11-19T03:25:25;99460.06;;;10.17;100.00
10638;BME280;47007;49.252;8.904;2023-11-19T03:26:10;99456.88;;;10.22;100.00
10638;BME280;47007;49.252;8.904;2023-11-19T03:26:51;99447.47;;;10.19;100.00
10638;BME280;47007;49.252;8.904;2023-11-19T03:27:39;99441.03;;;10.28;100.00
10638;BME280;47007;49.252;8.904;2023-11-19T03:28:23;99437.75;;;10.26;100.00
10638;BME280;47007;49.252;8.904;2023-11-19T03:29:04;99450.50;;;10.37;100.00
10638;BME280;47007;49.252;8.904;2023-11-19T03:29:46;99441.16;;;10.41;100.00
10638;BME280;47007;49.252;8.904;2023-11-19T03:30:28;99421.97;;;10.39;100.00
10638;BME280;47007;49.252;8.904;2023-11-19T03:31:13;99431.66;;;10.54;100.00
10638;BME280;47007;49.252;8.904;2023-11-19T03:31:55;99429.28;;;10.59;100.00
10638;BME280;47007;49.252;8.904;2023-11-19T03:32:38;99410.25;;;10.49;100.00
10638;BME280;47007;49.252;8.904;2023-11-19T03:33:20;99428.09;;;10.68;100.00
10638;BME280;47007;49.252;8.904;2023-11-19T03:34:02;99405.44;;;10.59;100.00
10638;BME280;47007;49.252;8.904;2023-11-19T03:34:44;99427.75;;;10.77;100.00
10638;BME280;47007;49.252;8.904;2023-11-19T03:35:26;99402.22;;;10.70;100.00
10638;BME280;47007;49.252;8.904;2023-11-19T03:36:09;99430.50;;;10.91;100.00
10638;BME280;47007;49.252;8.904;2023-11-19T03:36:51;99426.47;;;11.01;100.00
10638;BME280;47007;49.252;8.904;2023-11-19T03:37:33;99421.22;;;11.08;100.00
10638;BME280;47007;49.252;8.904;2023-11-19T03:38:15;99399.00;;;11.09;100.00
10638;BME280;47007;49.252;8.904;2023-11-19T03:38:56;99414.97;;;11.22;100.00
10638;BME280;47007;49.252;8.904;2023-11-19T03:39:38;99408.06;;;11.28;100.00
10638;BME280;47007;49.252;8.904;2023-11-19T03:40:20;99375.97;;;11.16;100.00
10638;BME280;47007;49.252;8.904;2023-11-19T03:41:12;99401.78;;;11.42;100.00
10638;BME280;47007;49.252;8.904;2023-11-19T03:41:54;99395.06;;;11.46;100.00
10638;BME280;47007;49.252;8.904;2023-11-19T03:42:36;99389.97;;;11.51;100.00
10638;BME280;47007;49.252;8.904;2023-11-19T03:43:18;99397.16;;;11.57;100.00
10638;BME280;47007;49.252;8.904;2023-11-19T03:44:01;99391.63;;;11.59;100.00
10638;BME280;47007;49.252;8.904;2023-11-19T03:44:42;99385.50;;;11.58;100.00
10638;BME280;47007;49.252;8.904;2023-11-19T03:45:24;99402.66;;;11.62;100.00
10638;BME280;47007;49.252;8.904;2023-11-19T03:46:19;99382.84;;;11.58;100.00
10638;BME280;47007;49.252;8.904;2023-11-19T03:47:01;99396.56;;;11.68;100.00
10638;BME280;47007;49.252;8.904;2023-11-19T03:47:43;99402.69;;;11.69;100.00